sensor_id;sensor_type;location;lat;lon;timestamp;pressure;altitude;pressure_sealevel;temperature;humidity
15750;BME280;7976;52.526;13.326;2022-10-03T00:00:10;101326.31;;;12.57;89.56
15750;BME280;7976;52.526;13.326;2022-10-03T00:03:27;101321.06;;;12.57;89.40
15750;BME280;7976;52.526;13.326;2022-10-03T00:06:09;101317.63;;;12.55;89.35
15750;BME280;7976;52.526;13.326;2022-10-03T00:09:08;101328.00;;;12.58;89.61
15750;BME280;7976;52.526;13.326;2022-10-03T00:11:55;101323.75;;;12.55;89.41
15750;BME280;7976;52.526;13.326;2022-10-03T00:14:35;101332.63;;;12.51;89.39
15750;BME280;7976;52.526;13.326;2022-10-03T00:17:27;101332.63;;;12.51;89.73
15750;BME280;7976;52.526;13.326;2022-10-03T00:20:26;101338.69;;;12.53;89.83
15750;BME280;7976;52.526;13.326;2022-10-03T00:23:05;101329.09;;;12.52;90.05
15750;BME280;7976;52.526;13.326;2022-10-03T00:25:43;101340.44;;;12.53;89.81
15750;BME280;7976;52.526;13.326;2022-10-03T00:28:38;101339.69;;;12.49;89.83
15750;BME280;7976;52.526;13.326;2022-10-03T00:31:12;101343.38;;;12.45;89.99
15750;BME280;7976;52.526;13.326;2022-10-03T00:33:58;101348.50;;;12.48;90.29
15750;BME280;7976;52.526;13.326;2022-10-03T00:36:40;101350.00;;;12.55;90.18
15750;BME280;7976;52.526;13.326;2022-10-03T00:39:32;101360.34;;;12.60;90.16
15750;BME280;7976;52.526;13.326;2022-10-03T00:43:04;101348.91;;;12.61;90.14
15750;BME280;7976;52.526;13.326;2022-10-03T00:46:30;101356.72;;;12.62;89.79
15750;BME280;7976;52.526;13.326;2022-10-03T00:49:55;101360.28;;;12.61;89.80
15750;BME280;7976;52.526;13.326;2022-10-03T00:53:18;101351.59;;;12.59;89.95
15750;BME280;7976;52.526;13.326;2022-10-03T00:59:03;101357.97;;;12.52;89.95
15750;BME280;7976;52.526;13.326;2022-10-03T01:01:47;101357.13;;;12.52;89.91
15750;BME280;7976;52.526;13.326;2022-10-03T01:04:38;101360.69;;;12.49;89.93
15750;BME280;7976;52.526;13.326;2022-10-03T01:07:30;101361.75;;;12.45;90.10
15750;BME280;7976;52.526;13.326;2022-10-03T01:10:15;101360.16;;;12.40;90.27
15750;BME280;7976;52.526;13.326;2022-10-03T01:13:18;101354.09;;;12.38;90.52
15750;BME280;7976;52.526;13.326;2022-10-03T01:16:03;101367.25;;;12.38;90.23
15750;BME280;7976;52.526;13.326;2022-10-03T01:18:50;101362.09;;;12.35;90.21
15750;BME280;7976;52.526;13.326;2022-10-03T01:21:42;101378.72;;;12.35;90.56
15750;BME280;7976;52.526;13.326;2022-10-03T01:24:53;101375.16;;;12.36;90.39
15750;BME280;7976;52.526;13.326;2022-10-03T01:27:37;101385.59;;;12.38;90.22
15750;BME280;7976;52.526;13.326;2022-10-03T01:30:33;101380.34;;;12.38;90.70
15750;BME280;7976;52.526;13.326;2022-10-03T01:33:08;101381.97;;;12.42;90.72
15750;BME280;7976;52.526;13.326;2022-10-03T01:35:45;101384.44;;;12.46;90.44
15750;BME280;7976;52.526;13.326;2022-10-03T01:38:24;101380.00;;;12.48;90.34
15750;BME280;7976;52.526;13.326;2022-10-03T01:41:02;101386.94;;;12.49;90.43
15750;BME280;7976;52.526;13.326;2022-10-03T01:43:40;101395.69;;;12.50;90.30
15750;BME280;7976;52.526;13.326;2022-10-03T01:46:21;101393.00;;;12.51;90.47
15750;BME280;7976;52.526;13.326;2022-10-03T01:49:04;101391.16;;;12.55;90.09
15750;BME280;7976;52.526;13.326;2022-10-03T01:51:47;101392.78;;;12.57;90.04
15750;BME280;7976;52.526;13.326;2022-10-03T01:54:28;101395.41;;;12.57;90.24
15750;BME280;7976;52.526;13.326;2022-10-03T01:57:11;101395.41;;;12.57;90.31
15750;BME280;7976;52.526;13.326;2022-10-03T01:59:46;101394.53;;;12.58;90.07
15750;BME280;7976;52.526;13.326;2022-10-03T02:02:32;101394.63;;;12.55;90.02
15750;BME280;7976;52.526;13.326;2022-10-03T02:05:10;101395.41;;;12.57;90.01
15750;BME280;7976;52.526;13.326;2022-10-03T02:07:59;101402.34;;;12.60;89.99
15750;BME280;7976;52.526;13.326;2022-10-03T02:10:54;101405.84;;;12.60;89.75
15750;BME280;7976;52.526;13.326;2022-10-03T02:13:29;101404.84;;;12.63;89.81
15750;BME280;7976;52.526;13.326;2022-10-03T02:16:09;101406.59;;;12.64;89.83
15750;BME280;7976;52.526;13.326;2022-10-03T02:18:48;101402.22;;;12.63;89.64
15750;BME280;7976;52.526;13.326;2022-10-03T02:21:19;101404.81;;;12.64;89.73
15750;BME280;7976;52.526;13.326;2022-10-03T02:23:50;101405.66;;;12.65;89.44
15750;BME280;7976;52.526;13.326;2022-10-03T02:27:00;101406.47;;;12.67;89.56
15750;BME280;7976;52.526;13.326;2022-10-03T02:30:03;101414.19;;;12.72;89.09
15750;BME280;7976;52.526;13.326;2022-10-03T02:33:30;101411.56;;;12.72;89.13
15750;BME280;7976;52.526;13.326;2022-10-03T02:49:59;101421.94;;;12.75;88.52
15750;BME280;7976;52.526;13.326;2022-10-03T02:56:45;101417.75;;;12.71;88.78
15750;BME280;7976;52.526;13.326;2022-10-03T03:00:10;101423.03;;;12.69;88.20
15750;BME280;7976;52.526;13.326;2022-10-03T03:06:53;101429.06;;;12.71;88.56
15750;BME280;7976;52.526;13.326;2022-10-03T03:10:25;101428.13;;;12.74;88.49
15750;BME280;7976;52.526;13.326;2022-10-03T03:13:42;101440.34;;;12.75;88.56
15750;BME280;7976;52.526;13.326;2022-10-03T03:16:53;101431.66;;;12.73;88.34
15750;BME280;7976;52.526;13.326;2022-10-03T03:19:40;101436.19;;;12.69;88.38
15750;BME280;7976;52.526;13.326;2022-10-03T03:22:31;101442.38;;;12.67;88.70
15750;BME280;7976;52.526;13.326;2022-10-03T03:25:32;101432.03;;;12.62;88.64
15750;BME280;7976;52.526;13.326;2022-10-03T03:28:19;101430.38;;;12.59;88.41
15750;BME280;7976;52.526;13.326;2022-10-03T03:31:06;101437.44;;;12.57;88.73
15750;BME280;7976;52.526;13.326;2022-10-03T03:33:49;101443.50;;;12.59;89.02
15750;BME280;7976;52.526;13.326;2022-10-03T03:36:33;101436.38;;;12.63;88.73
15750;BME280;7976;52.526;13.326;2022-10-03T03:39:22;101440.75;;;12.62;88.92
15750;BME280;7976;52.526;13.326;2022-10-03T03:42:20;101441.50;;;12.66;88.75
15750;BME280;7976;52.526;13.326;2022-10-03T03:45:20;101453.75;;;12.67;88.82
15750;BME280;7976;52.526;13.326;2022-10-03T03:48:13;101453.00;;;12.63;88.71
15750;BME280;7976;52.526;13.326;2022-10-03T03:51:09;101456.50;;;12.62;88.91
15750;BME280;7976;52.526;13.326;2022-10-03T03:54:05;101453.03;;;12.62;88.55
15750;BME280;7976;52.526;13.326;2022-10-03T03:56:55;101460.06;;;12.61;89.26
15750;BME280;7976;52.526;13.326;2022-10-03T03:59:56;101457.47;;;12.60;89.16
15750;BME280;7976;52.526;13.326;2022-10-03T04:02:47;101467.13;;;12.59;89.42
15750;BME280;7976;52.526;13.326;2022-10-03T04:05:31;101464.44;;;12.61;89.44
15750;BME280;7976;52.526;13.326;2022-10-03T04:08:25;101474.09;;;12.60;89.29
15750;BME280;7976;52.526;13.326;2022-10-03T04:11:17;101473.25;;;12.60;89.60
15750;BME280;7976;52.526;13.326;2022-10-03T04:14:16;101470.56;;;12.61;89.64
15750;BME280;7976;52.526;13.326;2022-10-03T04:17:13;101475.91;;;12.58;89.43
15750;BME280;7976;52.526;13.326;2022-10-03T04:20:24;101474.09;;;12.60;89.75
15750;BME280;7976;52.526;13.326;2022-10-03T04:23:24;101477.50;;;12.62;89.51
15750;BME280;7976;52.526;13.326;2022-10-03T04:26:19;101482.78;;;12.62;89.32
15750;BME280;7976;52.526;13.326;2022-10-03T04:29:41;101473.13;;;12.63;89.37
15750;BME280;7976;52.526;13.326;2022-10-03T04:32:25;101480.13;;;12.64;89.37
15750;BME280;7976;52.526;13.326;2022-10-03T04:35:23;101473.94;;;12.65;89.22
15750;BME280;7976;52.526;13.326;2022-10-03T04:38:06;101476.56;;;12.65;89.00
15750;BME280;7976;52.526;13.326;2022-10-03T04:40:49;101473.06;;;12.64;89.07
15750;BME280;7976;52.526;13.326;2022-10-03T04:43:31;101476.63;;;12.63;88.78
15750;BME280;7976;52.526;13.326;2022-10-03T04:46:18;101473.25;;;12.60;89.03
15750;BME280;7976;52.526;13.326;2022-10-03T04:48:58;101476.78;;;12.59;89.24
15750;BME280;7976;52.526;13.326;2022-10-03T04:51:45;101477.69;;;12.58;89.10
15750;BME280;7976;52.526;13.326;2022-10-03T04:54:25;101483.97;;;12.54;89.27
15750;BME280;7976;52.526;13.326;2022-10-03T04:57:01;101478.72;;;12.52;89.29
15750;BME280;7976;52.526;13.326;2022-10-03T04:59:45;101483.97;;;12.54;89.41
15750;BME280;7976;52.526;13.326;2022-10-03T05:02:33;101483.97;;;12.54;89.06
15750;BME280;7976;52.526;13.326;2022-10-03T05:05:26;101484.78;;;12.54;89.18
15750;BME280;7976;52.526;13.326;2022-10-03T05:08:14;101494.34;;;12.57;89.06
15750;BME280;7976;52.526;13.326;2022-10-03T05:11:01;101493.50;;;12.56;88.94
15750;BME280;7976;52.526;13.326;2022-10-03T05:13:43;101496.16;;;12.55;89.30
15750;BME280;7976;52.526;13.326;2022-10-03T05:16:22;101496.28;;;12.52;89.02
15750;BME280;7976;52.526;13.326;2022-10-03T05:19:08;101493.72;;;12.50;89.11
15750;BME280;7976;52.526;13.326;2022-10-03T05:21:54;101494.47;;;12.52;89.28
15750;BME280;7976;52.526;13.326;2022-10-03T05:24:34;101500.50;;;12.56;89.06
15750;BME280;7976;52.526;13.326;2022-10-03T05:27:17;101498.69;;;12.58;88.82
15750;BME280;7976;52.526;13.326;2022-10-03T05:29:56;101503.06;;;12.57;89.02
15750;BME280;7976;52.526;13.326;2022-10-03T05:32:34;101510.22;;;12.54;88.77
15750;BME280;7976;52.526;13.326;2022-10-03T05:35:23;101508.44;;;12.54;89.14
15750;BME280;7976;52.526;13.326;2022-10-03T05:38:18;101511.91;;;12.55;88.65
15750;BME280;7976;52.526;13.326;2022-10-03T05:41:02;101513.56;;;12.59;89.07
15750;BME280;7976;52.526;13.326;2022-10-03T05:43:51;101517.94;;;12.58;88.72
15750;BME280;7976;52.526;13.326;2022-10-03T05:46:42;101518.81;;;12.57;88.78
15750;BME280;7976;52.526;13.326;2022-10-03T05:49:49;101516.19;;;12.59;88.88
15750;BME280;7976;52.526;13.326;2022-10-03T05:52:49;101520.50;;;12.60;88.89
15750;BME280;7976;52.526;13.326;2022-10-03T05:55:36;101527.47;;;12.61;88.51
15750;BME280;7976;52.526;13.326;2022-10-03T05:58:55;101528.34;;;12.61;88.59
15750;BME280;7976;52.526;13.326;2022-10-03T06:01:59;101528.28;;;12.63;88.51
15750;BME280;7976;52.526;13.326;2022-10-03T06:04:59;101540.53;;;12.62;88.40
15750;BME280;7976;52.526;13.326;2022-10-03T06:07:32;101532.75;;;12.59;88.06
15750;BME280;7976;52.526;13.326;2022-10-03T06:10:42;101530.13;;;12.59;88.58
15750;BME280;7976;52.526;13.326;2022-10-03T06:13:19;101541.50;;;12.60;88.30
15750;BME280;7976;52.526;13.326;2022-10-03T06:16:06;101537.06;;;12.62;88.37
15750;BME280;7976;52.526;13.326;2022-10-03T06:19:06;101545.78;;;12.62;88.17
15750;BME280;7976;52.526;13.326;2022-10-03T06:22:21;101555.34;;;12.65;88.30
15750;BME280;7976;52.526;13.326;2022-10-03T06:29:08;101579.59;;;12.73;88.05
15750;BME280;7976;52.526;13.326;2022-10-03T06:32:15;101578.66;;;12.76;87.96
15750;BME280;7976;52.526;13.326;2022-10-03T06:35:45;101584.69;;;12.78;88.05
15750;BME280;7976;52.526;13.326;2022-10-03T06:46:12;101596.13;;;12.77;87.95
15750;BME280;7976;52.526;13.326;2022-10-03T06:49:34;101596.13;;;12.77;87.65
15750;BME280;7976;52.526;13.326;2022-10-03T06:56:09;101596.81;;;12.82;87.74
15750;BME280;7976;52.526;13.326;2022-10-03T06:59:20;101598.50;;;12.84;87.65
15750;BME280;7976;52.526;13.326;2022-10-03T07:02:33;101597.53;;;12.87;87.58
15750;BME280;7976;52.526;13.326;2022-10-03T07:05:55;101597.59;;;12.85;87.37
15750;BME280;7976;52.526;13.326;2022-10-03T07:12:48;101604.22;;;12.97;86.95
15750;BME280;7976;52.526;13.326;2022-10-03T07:19:41;101616.94;;;13.10;86.56
15750;BME280;7976;52.526;13.326;2022-10-03T07:29:13;101626.13;;;13.23;86.06
15750;BME280;7976;52.526;13.326;2022-10-03T07:32:22;101617.16;;;13.29;85.72
15750;BME280;7976;52.526;13.326;2022-10-03T07:35:43;101617.94;;;13.32;85.85
15750;BME280;7976;52.526;13.326;2022-10-03T07:39:08;101623.00;;;13.37;85.44
15750;BME280;7976;52.526;13.326;2022-10-03T07:45:29;101626.03;;;13.51;84.95
15750;BME280;7976;52.526;13.326;2022-10-03T07:48:45;101635.44;;;13.58;84.40
15750;BME280;7976;52.526;13.326;2022-10-03T07:51:28;101640.47;;;13.64;83.75
15750;BME280;7976;52.526;13.326;2022-10-03T07:54:40;101645.69;;;13.65;83.42
15750;BME280;7976;52.526;13.326;2022-10-03T07:57:48;101650.88;;;13.67;83.46
15750;BME280;7976;52.526;13.326;2022-10-03T08:00:23;101656.03;;;13.70;83.31
15750;BME280;7976;52.526;13.326;2022-10-03T08:03:39;101659.34;;;13.75;83.19
15750;BME280;7976;52.526;13.326;2022-10-03T08:06:23;101657.53;;;13.77;82.88
15750;BME280;7976;52.526;13.326;2022-10-03T08:09:31;101661.63;;;13.85;82.61
15750;BME280;7976;52.526;13.326;2022-10-03T08:12:46;101667.69;;;13.88;82.31
15750;BME280;7976;52.526;13.326;2022-10-03T08:15:29;101666.75;;;13.88;82.04
15750;BME280;7976;52.526;13.326;2022-10-03T08:18:42;101662.38;;;13.89;81.73
15750;BME280;7976;52.526;13.326;2022-10-03T08:21:20;101664.88;;;13.92;81.38
15750;BME280;7976;52.526;13.326;2022-10-03T08:24:16;101664.63;;;14.00;81.08
15750;BME280;7976;52.526;13.326;2022-10-03T08:27:06;101670.53;;;14.06;80.66
15750;BME280;7976;52.526;13.326;2022-10-03T08:30:05;101664.22;;;14.10;80.03
15750;BME280;7976;52.526;13.326;2022-10-03T08:33:24;101678.25;;;14.11;79.51
15750;BME280;7976;52.526;13.326;2022-10-03T08:36:46;101687.00;;;14.11;79.33
15750;BME280;7976;52.526;13.326;2022-10-03T08:39:46;101689.41;;;14.17;78.93
15750;BME280;7976;52.526;13.326;2022-10-03T08:46:00;101691.56;;;14.31;79.09
15750;BME280;7976;52.526;13.326;2022-10-03T08:49:05;101693.00;;;14.39;
15750;BME280;7976;52.526;13.326;2022-10-03T08:52:15;101693.81;;;14.41;78.46
15750;BME280;7976;52.526;13.326;2022-10-03T08:58:37;101694.25;;;14.52;78.14
15750;BME280;7976;52.526;13.326;2022-10-03T09:01:25;101687.03;;;14.57;77.93
15750;BME280;7976;52.526;13.326;2022-10-03T09:04:40;101688.47;;;14.66;77.27
15750;BME280;7976;52.526;13.326;2022-10-03T09:08:00;101690.00;;;14.71;77.52
15750;BME280;7976;52.526;13.326;2022-10-03T09:11:04;101688.28;;;14.70;77.24
15750;BME280;7976;52.526;13.326;2022-10-03T09:14:25;101699.88;;;14.66;76.76
15750;BME280;7976;52.526;13.326;2022-10-03T09:17:24;101701.69;;;14.64;77.26
15750;BME280;7976;52.526;13.326;2022-10-03T09:27:17;101702.31;;;14.71;77.22
15750;BME280;7976;52.526;13.326;2022-10-03T09:30:15;101704.75;;;14.75;77.13
15750;BME280;7976;52.526;13.326;2022-10-03T09:33:39;101705.38;;;14.82;77.06
15750;BME280;7976;52.526;13.326;2022-10-03T09:37:05;101697.00;;;14.94;76.99
15750;BME280;7976;52.526;13.326;2022-10-03T09:44:11;101691.31;;;15.04;75.87
15750;BME280;7976;52.526;13.326;2022-10-03T09:47:26;101699.88;;;15.09;75.70
15750;BME280;7976;52.526;13.326;2022-10-03T09:57:14;101704.81;;;15.40;74.61
15750;BME280;7976;52.526;13.326;2022-10-03T10:00:22;101713.66;;;15.38;73.98
15750;BME280;7976;52.526;13.326;2022-10-03T10:03:45;101705.00;;;15.34;74.47
15750;BME280;7976;52.526;13.326;2022-10-03T10:07:16;101711.44;;;15.29;74.25
15750;BME280;7976;52.526;13.326;2022-10-03T10:10:27;101718.66;;;15.24;74.50
15750;BME280;7976;52.526;13.326;2022-10-03T10:13:16;101714.16;;;15.26;74.59
15750;BME280;7976;52.526;13.326;2022-10-03T10:16:44;101704.06;;;15.37;74.56
15750;BME280;7976;52.526;13.326;2022-10-03T10:19:51;101710.81;;;15.44;74.79
15750;BME280;7976;52.526;13.326;2022-10-03T10:29:52;101698.19;;;15.72;73.74
15750;BME280;7976;52.526;13.326;2022-10-03T10:33:07;101691.59;;;15.82;73.70
15750;BME280;7976;52.526;13.326;2022-10-03T10:36:31;101695.03;;;15.84;73.25
15750;BME280;7976;52.526;13.326;2022-10-03T10:39:44;101693.16;;;15.86;73.13
15750;BME280;7976;52.526;13.326;2022-10-03T10:43:22;101690.13;;;15.95;72.38
15750;BME280;7976;52.526;13.326;2022-10-03T10:46:28;101685.63;;;15.97;72.01
15750;BME280;7976;52.526;13.326;2022-10-03T10:49:38;101682.78;;;16.01;72.24
15750;BME280;7976;52.526;13.326;2022-10-03T10:52:49;101687.00;;;16.05;71.87
15750;BME280;7976;52.526;13.326;2022-10-03T10:59:47;101695.88;;;16.23;71.84
15750;BME280;7976;52.526;13.326;2022-10-03T11:09:43;101693.53;;;16.17;72.52
15750;BME280;7976;52.526;13.326;2022-10-03T11:13:27;101683.09;;;16.14;72.35
15750;BME280;7976;52.526;13.326;2022-10-03T11:17:04;101686.78;;;16.10;72.86
15750;BME280;7976;52.526;13.326;2022-10-03T11:24:01;101691.44;;;16.05;73.06
15750;BME280;7976;52.526;13.326;2022-10-03T11:27:15;101698.69;;;16.00;73.36
15750;BME280;7976;52.526;13.326;2022-10-03T11:30:19;101704.13;;;15.97;73.39
15750;BME280;7976;52.526;13.326;2022-10-03T11:37:02;101704.25;;;15.94;74.74
15750;BME280;7976;52.526;13.326;2022-10-03T11:39:43;101703.38;;;15.93;74.65
15750;BME280;7976;52.526;13.326;2022-10-03T11:42:28;101708.59;;;15.95;75.01
15750;BME280;7976;52.526;13.326;2022-10-03T11:45:05;101700.16;;;15.87;75.33
15750;BME280;7976;52.526;13.326;2022-10-03T11:48:01;101712.25;;;15.92;75.83
15750;BME280;7976;52.526;13.326;2022-10-03T11:50:47;101710.44;;;15.93;75.79
15750;BME280;7976;52.526;13.326;2022-10-03T11:53:45;101709.84;;;15.86;76.01
15750;BME280;7976;52.526;13.326;2022-10-03T11:56:35;101698.44;;;15.86;76.16
15750;BME280;7976;52.526;13.326;2022-10-03T11:59:39;101699.28;;;15.86;76.71
15750;BME280;7976;52.526;13.326;2022-10-03T12:02:24;101704.50;;;15.88;77.03
15750;BME280;7976;52.526;13.326;2022-10-03T12:05:10;101702.53;;;15.93;76.93
15750;BME280;7976;52.526;13.326;2022-10-03T12:07:45;101699.81;;;15.94;77.02
15750;BME280;7976;52.526;13.326;2022-10-03T12:10:49;101700.09;;;15.88;76.98
15750;BME280;7976;52.526;13.326;2022-10-03T12:13:34;101687.28;;;15.79;77.60
15750;BME280;7976;52.526;13.326;2022-10-03T12:16:12;101684.72;;;15.78;78.12
15750;BME280;7976;52.526;13.326;2022-10-03T12:18:57;101680.22;;;15.80;77.97
15750;BME280;7976;52.526;13.326;2022-10-03T12:21:42;101674.72;;;15.84;77.92
15750;BME280;7976;52.526;13.326;2022-10-03T12:24:24;101677.97;;;15.91;77.81
15750;BME280;7976;52.526;13.326;2022-10-03T12:27:01;101672.66;;;15.92;77.90
15750;BME280;7976;52.526;13.326;2022-10-03T12:29:35;101684.19;;;15.90;77.82
15750;BME280;7976;52.526;13.326;2022-10-03T12:32:24;101686.16;;;15.85;77.83
15750;BME280;7976;52.526;13.326;2022-10-03T12:35:14;101685.88;;;15.91;77.84
15750;BME280;7976;52.526;13.326;2022-10-03T12:38:01;101681.81;;;16.04;77.59
15750;BME280;7976;52.526;13.326;2022-10-03T12:40:36;101684.66;;;16.18;77.32
15750;BME280;7976;52.526;13.326;2022-10-03T12:43:22;101683.81;;;16.36;76.94
15750;BME280;7976;52.526;13.326;2022-10-03T12:46:01;101678.97;;;16.47;76.37
15750;BME280;7976;52.526;13.326;2022-10-03T12:48:43;101685.03;;;16.49;75.62
15750;BME280;7976;52.526;13.326;2022-10-03T12:51:29;101672.72;;;16.48;75.54
15750;BME280;7976;52.526;13.326;2022-10-03T12:54:13;101680.72;;;16.47;75.24
15750;BME280;7976;52.526;13.326;2022-10-03T12:56:49;101666.84;;;16.42;75.46
15750;BME280;7976;52.526;13.326;2022-10-03T12:59:34;101677.56;;;16.39;75.10
15750;BME280;7976;52.526;13.326;2022-10-03T13:02:22;101677.97;;;16.29;75.16
15750;BME280;7976;52.526;13.326;2022-10-03T13:08:06;101668.88;;;16.16;75.25
15750;BME280;7976;52.526;13.326;2022-10-03T13:10:46;101674.75;;;16.23;74.76
15750;BME280;7976;52.526;13.326;2022-10-03T13:13:26;101668.25;;;16.30;74.19
15750;BME280;7976;52.526;13.326;2022-10-03T13:16:22;101671.47;;;16.37;73.65
15750;BME280;7976;52.526;13.326;2022-10-03T13:18:59;101679.88;;;16.46;73.12
15750;BME280;7976;52.526;13.326;2022-10-03T13:21:53;101675.03;;;16.56;72.56
15750;BME280;7976;52.526;13.326;2022-10-03T13:24:34;101679.31;;;16.58;71.51
15750;BME280;7976;52.526;13.326;2022-10-03T13:27:22;101686.16;;;16.62;71.01
15750;BME280;7976;52.526;13.326;2022-10-03T13:30:01;101683.22;;;16.68;71.20
15750;BME280;7976;52.526;13.326;2022-10-03T13:32:34;101683.03;;;16.73;70.91
15750;BME280;7976;52.526;13.326;2022-10-03T13:35:35;101677.59;;;16.76;70.23
15750;BME280;7976;52.526;13.326;2022-10-03T13:38:48;101683.59;;;16.79;70.15
15750;BME280;7976;52.526;13.326;2022-10-03T13:41:44;101678.22;;;16.81;70.30
15750;BME280;7976;52.526;13.326;2022-10-03T13:44:35;101681.66;;;16.83;69.72
15750;BME280;7976;52.526;13.326;2022-10-03T13:47:24;101682.66;;;16.80;69.27
15750;BME280;7976;52.526;13.326;2022-10-03T13:49:56;101686.09;;;16.82;69.84
15750;BME280;7976;52.526;13.326;2022-10-03T13:52:37;101671.72;;;16.88;69.55
15750;BME280;7976;52.526;13.326;2022-10-03T13:55:22;101685.63;;;16.91;69.79
15750;BME280;7976;52.526;13.326;2022-10-03T13:58:37;101690.16;;;16.89;69.48
15750;BME280;7976;52.526;13.326;2022-10-03T14:01:27;101673.03;;;16.79;69.97
15750;BME280;7976;52.526;13.326;2022-10-03T14:04:37;101678.00;;;16.67;70.19
15750;BME280;7976;52.526;13.326;2022-10-03T14:07:14;101687.03;;;16.63;70.32
15750;BME280;7976;52.526;13.326;2022-10-03T14:10:08;101687.22;;;16.58;70.95
15750;BME280;7976;52.526;13.326;2022-10-03T14:12:57;101683.94;;;16.53;70.93
15750;BME280;7976;52.526;13.326;2022-10-03T14:15:47;101683.09;;;16.53;71.03
15750;BME280;7976;52.526;13.326;2022-10-03T14:18:32;101686.75;;;16.50;71.40
15750;BME280;7976;52.526;13.326;2022-10-03T14:21:40;101684.97;;;16.51;71.51
15750;BME280;7976;52.526;13.326;2022-10-03T14:24:31;101674.53;;;16.48;71.97
15750;BME280;7976;52.526;13.326;2022-10-03T14:27:19;101683.03;;;16.54;71.88
15750;BME280;7976;52.526;13.326;2022-10-03T14:30:03;101684.75;;;16.55;71.58
15750;BME280;7976;52.526;13.326;2022-10-03T14:32:41;101676.81;;;16.55;71.45
15750;BME280;7976;52.526;13.326;2022-10-03T14:35:27;101671.38;;;16.58;71.74
15750;BME280;7976;52.526;13.326;2022-10-03T14:38:08;101684.59;;;16.58;71.52
15750;BME280;7976;52.526;13.326;2022-10-03T14:40:45;101667.19;;;16.54;71.12
15750;BME280;7976;52.526;13.326;2022-10-03T14:43:30;101664.72;;;16.50;70.61
15750;BME280;7976;52.526;13.326;2022-10-03T14:46:04;101669.34;;;16.45;70.14
15750;BME280;7976;52.526;13.326;2022-10-03T14:48:38;101673.53;;;16.50;70.22
15750;BME280;7976;52.526;13.326;2022-10-03T14:51:14;101667.44;;;16.48;70.02
15750;BME280;7976;52.526;13.326;2022-10-03T14:53:51;101661.38;;;16.46;70.04
15750;BME280;7976;52.526;13.326;2022-10-03T14:56:24;101669.41;;;16.43;70.17
15750;BME280;7976;52.526;13.326;2022-10-03T14:58:54;101670.28;;;16.44;70.37
15750;BME280;7976;52.526;13.326;2022-10-03T15:01:28;101668.63;;;16.41;70.72
15750;BME280;7976;52.526;13.326;2022-10-03T15:04:03;101669.56;;;16.40;70.78
15750;BME280;7976;52.526;13.326;2022-10-03T15:06:47;101666.13;;;16.38;71.01
15750;BME280;7976;52.526;13.326;2022-10-03T15:09:17;101665.31;;;16.36;70.46
15750;BME280;7976;52.526;13.326;2022-10-03T15:11:50;101652.19;;;16.34;70.46
15750;BME280;7976;52.526;13.326;2022-10-03T15:14:20;101661.84;;;16.36;70.36
15750;BME280;7976;52.526;13.326;2022-10-03T15:16:54;101658.25;;;16.37;70.13
15750;BME280;7976;52.526;13.326;2022-10-03T15:19:28;101662.84;;;16.33;70.56
15750;BME280;7976;52.526;13.326;2022-10-03T15:22:06;101664.69;;;16.31;70.53
15750;BME280;7976;52.526;13.326;2022-10-03T15:24:40;101666.56;;;16.29;70.66
15750;BME280;7976;52.526;13.326;2022-10-03T15:27:17;101653.44;;;16.27;70.44
15750;BME280;7976;52.526;13.326;2022-10-03T15:29:53;101659.69;;;16.25;70.76
15750;BME280;7976;52.526;13.326;2022-10-03T15:32:28;101662.34;;;16.25;70.31
15750;BME280;7976;52.526;13.326;2022-10-03T15:35:00;101667.75;;;16.22;70.54
15750;BME280;7976;52.526;13.326;2022-10-03T15:37:32;101663.38;;;16.21;70.52
15750;BME280;7976;52.526;13.326;2022-10-03T15:40:08;101663.47;;;16.19;70.68
15750;BME280;7976;52.526;13.326;2022-10-03T15:42:51;101661.75;;;16.18;70.50
15750;BME280;7976;52.526;13.326;2022-10-03T15:45:30;101663.69;;;16.15;70.89
15750;BME280;7976;52.526;13.326;2022-10-03T15:48:03;101661.97;;;16.14;71.09
15750;BME280;7976;52.526;13.326;2022-10-03T15:50:36;101664.69;;;16.12;70.73
15750;BME280;7976;52.526;13.326;2022-10-03T15:53:11;101668.25;;;16.11;70.89
15750;BME280;7976;52.526;13.326;2022-10-03T15:55:46;101670.94;;;16.10;71.20
15750;BME280;7976;52.526;13.326;2022-10-03T15:58:18;101669.25;;;16.09;71.04
15750;BME280;7976;52.526;13.326;2022-10-03T16:00:58;101673.66;;;16.08;71.33
15750;BME280;7976;52.526;13.326;2022-10-03T16:03:39;101675.50;;;16.06;71.71
15750;BME280;7976;52.526;13.326;2022-10-03T16:06:11;101670.44;;;16.02;71.79
15750;BME280;7976;52.526;13.326;2022-10-03T16:08:55;101658.09;;;16.02;71.96
15750;BME280;7976;52.526;13.326;2022-10-03T16:11:27;101668.66;;;16.02;72.34
15750;BME280;7976;52.526;13.326;2022-10-03T16:14:13;101674.78;;;16.03;72.65
15750;BME280;7976;52.526;13.326;2022-10-03T16:16:46;101674.84;;;16.01;72.28
15750;BME280;7976;52.526;13.326;2022-10-03T16:19:30;101671.50;;;15.98;72.39
15750;BME280;7976;52.526;13.326;2022-10-03T16:22:13;101681.22;;;15.97;72.71
15750;BME280;7976;52.526;13.326;2022-10-03T16:24:51;101676.84;;;15.96;73.03
15750;BME280;7976;52.526;13.326;2022-10-03T16:27:22;101662.00;;;15.94;72.96
15750;BME280;7976;52.526;13.326;2022-10-03T16:30:09;101671.78;;;15.92;73.16
15750;BME280;7976;52.526;13.326;2022-10-03T16:32:48;101668.47;;;15.87;73.56
15750;BME280;7976;52.526;13.326;2022-10-03T16:35:34;101670.47;;;15.82;74.17
15750;BME280;7976;52.526;13.326;2022-10-03T16:38:07;101672.38;;;15.78;74.50
15750;BME280;7976;52.526;13.326;2022-10-03T16:40:52;101668.03;;;15.77;74.44
15750;BME280;7976;52.526;13.326;2022-10-03T16:43:22;101671.56;;;15.76;74.84
15750;BME280;7976;52.526;13.326;2022-10-03T16:45:50;101666.44;;;15.73;74.92
15750;BME280;7976;52.526;13.326;2022-10-03T16:48:23;101668.28;;;15.71;74.83